KEYE

Eagle Creek Airpark

Indianapolis, Indiana, USA
METAR KEYE 181953Z AUTO 22008KT 9SM SCT014 OVC022 08/05 A2998 RMK AO2 SLP155 T00780050
Observed Flight Rules
Dec-18 @ 19:53 UTC (40 minutes ago) Marginal Visual Flight Rules
Wind Visibility Clouds
220° at 8 knots 9 miles
  • Scattered at 1,400' AGL
  • Overcast at 2,200' AGL
Temperatures Readings
Current 8°C / 46°F
Dewpoint 5°C / 41°F
Humidity 82%
Altimeter 29.98" Hg
Pressure 1015.5 hPa
Elevation 248
METAR KEYE 181953Z AUTO 22008KT 9SM SCT014 OVC022 08/05 A2998 RMK AO2 SLP155 T00780050
Observed Flight Rules
Dec-18 @ 19:53 UTC
(40 minutes ago)
MVFR
Wind Visibility
220° at 8 knots 9 miles
Clouds
  • Scattered at 1,400' AGL
  • Overcast at 2,200' AGL
Temperature Dewpoint
8°C / 46°F 5°C / 41°F
Humidity Altimeter Pressure
82% 29.98" Hg 1015.5 hPa